sensor_id;sensor_type;location;lat;lon;timestamp;pressure;altitude;pressure_sealevel;temperature;humidity
11212;BME280;5663;50.864;12.096;2023-05-09T00:01:20;99924.22;;;8.97;60.34
11212;BME280;5663;50.864;12.096;2023-05-09T00:03:51;99884.69;;;8.67;60.13
11212;BME280;5663;50.864;12.096;2023-05-09T00:06:19;99929.81;;;8.86;60.19
11212;BME280;5663;50.864;12.096;2023-05-09T00:08:53;99916.94;;;8.83;60.36
11212;BME280;5663;50.864;12.096;2023-05-09T00:11:26;99894.06;;;8.70;60.44
11212;BME280;5663;50.864;12.096;2023-05-09T00:13:57;99898.31;;;8.72;60.21
11212;BME280;5663;50.864;12.096;2023-05-09T00:16:27;99910.28;;;8.76;60.32
11212;BME280;5663;50.864;12.096;2023-05-09T00:18:58;99910.38;;;8.73;60.33
11212;BME280;5663;50.864;12.096;2023-05-09T00:21:30;99905.63;;;8.61;60.25
11212;BME280;5663;50.864;12.096;2023-05-09T00:23:59;99871.94;;;8.34;60.52
11212;BME280;5663;50.864;12.096;2023-05-09T00:26:27;99920.56;;;8.54;60.90
11212;BME280;5663;50.864;12.096;2023-05-09T00:28:58;99912.72;;;8.56;60.90
11212;BME280;5663;50.864;12.096;2023-05-09T00:31:28;99911.03;;;8.55;60.85
11212;BME280;5663;50.864;12.096;2023-05-09T00:33:56;99904.16;;;8.54;60.57
11212;BME280;5663;50.864;12.096;2023-05-09T00:36:34;99908.59;;;8.50;60.72
11212;BME280;5663;50.864;12.096;2023-05-09T00:39:04;99898.25;;;8.49;60.82
11212;BME280;5663;50.864;12.096;2023-05-09T00:41:34;99899.16;;;8.48;61.17
11212;BME280;5663;50.864;12.096;2023-05-09T00:44:06;99891.66;;;8.40;60.81
11212;BME280;5663;50.864;12.096;2023-05-09T00:46:37;99905.41;;;8.42;60.36
11212;BME280;5663;50.864;12.096;2023-05-09T00:49:08;99905.56;;;8.36;60.77
11212;BME280;5663;50.864;12.096;2023-05-09T00:51:39;99901.63;;;8.24;60.65
11212;BME280;5663;50.864;12.096;2023-05-09T00:54:10;99898.38;;;8.18;61.19
11212;BME280;5663;50.864;12.096;2023-05-09T01:00:01;99879.44;;;7.90;61.09
11212;BME280;5663;50.864;12.096;2023-05-09T01:02:30;99895.56;;;7.99;61.36
11212;BME280;5663;50.864;12.096;2023-05-09T01:04:58;99882.72;;;7.96;61.22
11212;BME280;5663;50.864;12.096;2023-05-09T01:07:34;99887.72;;;8.00;61.67
11212;BME280;5663;50.864;12.096;2023-05-09T01:10:24;99891.97;;;8.03;61.54
11212;BME280;5663;50.864;12.096;2023-05-09T01:12:58;99885.09;;;8.02;61.52
11212;BME280;5663;50.864;12.096;2023-05-09T01:15:34;99892.00;;;8.01;60.77
11212;BME280;5663;50.864;12.096;2023-05-09T01:18:10;99890.38;;;7.99;60.89
11212;BME280;5663;50.864;12.096;2023-05-09T01:20:52;99888.66;;;7.98;61.04
11212;BME280;5663;50.864;12.096;2023-05-09T01:23:58;99892.16;;;7.97;60.85
11212;BME280;5663;50.864;12.096;2023-05-09T01:26:39;99888.88;;;7.92;61.09
11212;BME280;5663;50.864;12.096;2023-05-09T01:29:38;99895.91;;;7.88;61.03
11212;BME280;5663;50.864;12.096;2023-05-09T06:32:00;99723.25;;;22.20;40.06
11212;BME280;5663;50.864;12.096;2023-05-09T06:34:30;99721.81;;;22.25;40.29
11212;BME280;5663;50.864;12.096;2023-05-09T06:37:03;99712.16;;;22.34;39.81
11212;BME280;5663;50.864;12.096;2023-05-09T06:39:30;99708.25;;;22.38;39.45
11212;BME280;5663;50.864;12.096;2023-05-09T06:41:59;99707.84;;;22.33;40.29
11212;BME280;5663;50.864;12.096;2023-05-09T06:44:28;99703.72;;;22.21;40.32
11212;BME280;5663;50.864;12.096;2023-05-09T06:46:57;99702.63;;;22.13;40.17
11212;BME280;5663;50.864;12.096;2023-05-09T06:49:29;99700.25;;;22.01;40.15
11212;BME280;5663;50.864;12.096;2023-05-09T06:51:59;99677.34;;;21.62;40.10
11212;BME280;5663;50.864;12.096;2023-05-09T06:54:27;99686.56;;;21.39;40.63
11212;BME280;5663;50.864;12.096;2023-05-09T06:56:56;99682.31;;;21.07;41.21
11212;BME280;5663;50.864;12.096;2023-05-09T06:59:25;99687.84;;;20.75;41.49
11212;BME280;5663;50.864;12.096;2023-05-09T07:02:00;99662.91;;;20.37;41.68
11212;BME280;5663;50.864;12.096;2023-05-09T07:04:31;99679.72;;;20.27;40.94
11212;BME280;5663;50.864;12.096;2023-05-09T07:06:58;99673.34;;;20.08;41.17
11212;BME280;5663;50.864;12.096;2023-05-09T07:09:28;99675.19;;;19.87;41.05
11212;BME280;5663;50.864;12.096;2023-05-09T07:11:58;99667.59;;;19.73;41.22
11212;BME280;5663;50.864;12.096;2023-05-09T07:14:30;99659.31;;;19.45;40.12
11212;BME280;5663;50.864;12.096;2023-05-09T07:17:01;99661.41;;;19.30;41.96
11212;BME280;5663;50.864;12.096;2023-05-09T07:19:31;99661.84;;;19.14;41.37
11212;BME280;5663;50.864;12.096;2023-05-09T07:22:00;99675.41;;;19.10;41.85
11212;BME280;5663;50.864;12.096;2023-05-09T07:24:30;99672.09;;;18.97;42.78
11212;BME280;5663;50.864;12.096;2023-05-09T07:27:01;99669.63;;;18.84;41.78
11212;BME280;5663;50.864;12.096;2023-05-09T07:29:30;99658.97;;;18.74;41.18
11212;BME280;5663;50.864;12.096;2023-05-09T07:32:04;99659.53;;;18.66;42.93
11212;BME280;5663;50.864;12.096;2023-05-09T07:34:44;99653.34;;;18.67;43.22
11212;BME280;5663;50.864;12.096;2023-05-09T07:37:13;99656.56;;;18.60;40.46
11212;BME280;5663;50.864;12.096;2023-05-09T07:39:48;99633.03;;;18.36;39.65
11212;BME280;5663;50.864;12.096;2023-05-09T07:42:18;99639.22;;;18.46;41.64
11212;BME280;5663;50.864;12.096;2023-05-09T07:44:47;99644.97;;;18.51;41.06
11212;BME280;5663;50.864;12.096;2023-05-09T07:47:27;99634.91;;;18.56;41.78
11212;BME280;5663;50.864;12.096;2023-05-09T07:50:00;99631.16;;;18.59;42.12
11212;BME280;5663;50.864;12.096;2023-05-09T07:52:36;99625.81;;;18.72;41.72
11212;BME280;5663;50.864;12.096;2023-05-09T07:55:07;99615.22;;;18.83;42.01
11212;BME280;5663;50.864;12.096;2023-05-09T07:57:38;99613.06;;;18.88;42.16
11212;BME280;5663;50.864;12.096;2023-05-09T08:00:08;99592.22;;;18.85;41.91
11212;BME280;5663;50.864;12.096;2023-05-09T08:02:40;99612.38;;;19.07;41.81
11212;BME280;5663;50.864;12.096;2023-05-09T08:05:12;99605.88;;;19.11;41.33
11212;BME280;5663;50.864;12.096;2023-05-09T08:07:41;99600.50;;;19.12;41.34
11212;BME280;5663;50.864;12.096;2023-05-09T08:10:27;99584.22;;;19.07;40.97
11212;BME280;5663;50.864;12.096;2023-05-09T08:12:58;99588.00;;;19.14;40.86
11212;BME280;5663;50.864;12.096;2023-05-09T08:15:31;99588.59;;;19.18;41.70
11212;BME280;5663;50.864;12.096;2023-05-09T08:18:02;99586.44;;;19.23;39.91
11212;BME280;5663;50.864;12.096;2023-05-09T08:20:37;99582.44;;;19.29;41.40
11212;BME280;5663;50.864;12.096;2023-05-09T08:23:08;99586.81;;;19.39;41.97
11212;BME280;5663;50.864;12.096;2023-05-09T08:25:36;99584.09;;;19.51;42.36
11212;BME280;5663;50.864;12.096;2023-05-09T08:28:08;99580.56;;;19.61;42.47
11212;BME280;5663;50.864;12.096;2023-05-09T08:30:43;99573.41;;;19.73;41.59
11212;BME280;5663;50.864;12.096;2023-05-09T10:35:03;99414.84;;;27.32;28.49
11212;BME280;5663;50.864;12.096;2023-05-09T10:37:32;99411.53;;;27.30;28.50
11212;BME280;5663;50.864;12.096;2023-05-09T10:40:03;99375.31;;;26.98;26.52
11212;BME280;5663;50.864;12.096;2023-05-09T10:42:41;99407.06;;;27.08;27.44
11212;BME280;5663;50.864;12.096;2023-05-09T10:45:16;99405.78;;;27.03;28.93
11212;BME280;5663;50.864;12.096;2023-05-09T10:47:49;99392.00;;;27.30;27.82
11212;BME280;5663;50.864;12.096;2023-05-09T10:50:56;99377.97;;;27.57;26.56
11212;BME280;5663;50.864;12.096;2023-05-09T10:53:47;99376.38;;;27.63;29.03
11212;BME280;5663;50.864;12.096;2023-05-09T10:56:38;99372.38;;;27.88;28.98
11212;BME280;5663;50.864;12.096;2023-05-09T10:59:35;99370.72;;;28.09;28.13
11212;BME280;5663;50.864;12.096;2023-05-09T11:02:17;99367.00;;;28.31;28.21
11212;BME280;5663;50.864;12.096;2023-05-09T11:05:13;99358.94;;;28.46;27.76
11212;BME280;5663;50.864;12.096;2023-05-09T11:07:43;99363.34;;;28.60;27.62
11212;BME280;5663;50.864;12.096;2023-05-09T11:10:17;99357.81;;;28.62;25.95
11212;BME280;5663;50.864;12.096;2023-05-09T11:12:56;99344.81;;;28.59;26.29
11212;BME280;5663;50.864;12.096;2023-05-09T11:15:31;99346.59;;;28.45;26.08
11212;BME280;5663;50.864;12.096;2023-05-09T11:18:09;99346.06;;;28.35;27.45
11212;BME280;5663;50.864;12.096;2023-05-09T11:20:44;99323.28;;;28.39;26.62
11212;BME280;5663;50.864;12.096;2023-05-09T11:23:32;99334.34;;;28.64;25.30
11212;BME280;5663;50.864;12.096;2023-05-09T11:26:06;99323.75;;;28.77;26.92
11212;BME280;5663;50.864;12.096;2023-05-09T11:28:58;99316.59;;;28.91;25.45
11212;BME280;5663;50.864;12.096;2023-05-09T11:32:12;99311.47;;;28.96;26.06
11212;BME280;5663;50.864;12.096;2023-05-09T11:34:45;99310.03;;;28.93;24.90
11212;BME280;5663;50.864;12.096;2023-05-09T11:37:29;99310.66;;;28.95;24.49
11212;BME280;5663;50.864;12.096;2023-05-09T11:40:12;99303.66;;;28.94;24.99
11212;BME280;5663;50.864;12.096;2023-05-09T11:42:48;99269.63;;;28.88;25.11
11212;BME280;5663;50.864;12.096;2023-05-09T11:45:34;99296.72;;;29.07;24.65
11212;BME280;5663;50.864;12.096;2023-05-09T11:48:08;99265.72;;;28.91;25.58
11212;BME280;5663;50.864;12.096;2023-05-09T11:50:52;99267.50;;;29.12;24.76
11212;BME280;5663;50.864;12.096;2023-05-09T11:53:48;99267.44;;;28.99;24.08
11212;BME280;5663;50.864;12.096;2023-05-09T11:56:25;99274.31;;;28.80;24.25
11212;BME280;5663;50.864;12.096;2023-05-09T11:58:58;99261.19;;;28.85;26.07
11212;BME280;5663;50.864;12.096;2023-05-09T12:01:34;99252.63;;;29.03;24.92
11212;BME280;5663;50.864;12.096;2023-05-09T12:04:05;99262.09;;;28.99;24.60
11212;BME280;5663;50.864;12.096;2023-05-09T12:06:36;99238.09;;;28.77;24.44
11212;BME280;5663;50.864;12.096;2023-05-09T12:09:05;99243.34;;;28.99;25.81
11212;BME280;5663;50.864;12.096;2023-05-09T12:11:36;99237.03;;;29.26;24.86
11212;BME280;5663;50.864;12.096;2023-05-09T12:14:08;99219.78;;;29.42;25.84
11212;BME280;5663;50.864;12.096;2023-05-09T12:16:44;99217.50;;;29.52;23.07
11212;BME280;5663;50.864;12.096;2023-05-09T12:19:24;99212.34;;;29.51;24.39
11212;BME280;5663;50.864;12.096;2023-05-09T12:21:57;99204.94;;;29.46;25.59
11212;BME280;5663;50.864;12.096;2023-05-09T12:24:35;99200.38;;;29.46;24.54
11212;BME280;5663;50.864;12.096;2023-05-09T12:27:06;99203.91;;;29.54;23.69
11212;BME280;5663;50.864;12.096;2023-05-09T12:29:36;99187.66;;;29.62;24.45
11212;BME280;5663;50.864;12.096;2023-05-09T12:32:14;99186.81;;;29.68;24.43
11212;BME280;5663;50.864;12.096;2023-05-09T12:34:43;99179.59;;;29.82;22.96
11212;BME280;5663;50.864;12.096;2023-05-09T12:37:14;99181.44;;;29.88;23.26
11212;BME280;5663;50.864;12.096;2023-05-09T12:40:00;99183.94;;;29.89;24.78
11212;BME280;5663;50.864;12.096;2023-05-09T12:42:31;99176.28;;;30.00;23.84
11212;BME280;5663;50.864;12.096;2023-05-09T12:45:01;99178.75;;;29.94;24.15
11212;BME280;5663;50.864;12.096;2023-05-09T12:47:31;99171.34;;;29.97;23.38
11212;BME280;5663;50.864;12.096;2023-05-09T12:50:00;99159.38;;;29.92;24.37
11212;BME280;5663;50.864;12.096;2023-05-09T12:52:33;99130.31;;;29.83;24.65
11212;BME280;5663;50.864;12.096;2023-05-09T12:55:10;99149.22;;;30.08;23.16
11212;BME280;5663;50.864;12.096;2023-05-09T12:58:01;99135.41;;;30.11;23.31
11212;BME280;5663;50.864;12.096;2023-05-09T13:00:41;99134.00;;;29.95;22.79
11212;BME280;5663;50.864;12.096;2023-05-09T13:03:22;99128.22;;;29.91;24.04
11212;BME280;5663;50.864;12.096;2023-05-09T13:05:57;99124.91;;;29.96;23.31
11212;BME280;5663;50.864;12.096;2023-05-09T13:08:27;99117.88;;;30.02;24.78
11212;BME280;5663;50.864;12.096;2023-05-09T13:11:09;99112.47;;;30.15;23.60
11212;BME280;5663;50.864;12.096;2023-05-09T13:13:43;99121.13;;;30.30;23.80
11212;BME280;5663;50.864;12.096;2023-05-09T13:16:12;99114.47;;;30.39;24.16
11212;BME280;5663;50.864;12.096;2023-05-09T13:18:49;99109.13;;;30.39;23.45
11212;BME280;5663;50.864;12.096;2023-05-09T13:21:26;99111.69;;;30.21;23.78
11212;BME280;5663;50.864;12.096;2023-05-09T13:24:00;99105.88;;;30.24;23.43
11212;BME280;5663;50.864;12.096;2023-05-09T13:26:27;99095.19;;;30.17;22.38
11212;BME280;5663;50.864;12.096;2023-05-09T13:28:59;99061.84;;;29.74;21.42
11212;BME280;5663;50.864;12.096;2023-05-09T13:31:27;99097.31;;;29.76;21.67
11212;BME280;5663;50.864;12.096;2023-05-09T13:33:56;99087.44;;;29.63;23.18
11212;BME280;5663;50.864;12.096;2023-05-09T13:36:24;99083.72;;;29.64;24.33
11212;BME280;5663;50.864;12.096;2023-05-09T13:38:53;99084.53;;;29.71;24.09
11212;BME280;5663;50.864;12.096;2023-05-09T13:41:23;99078.75;;;29.81;23.98
11212;BME280;5663;50.864;12.096;2023-05-09T13:43:53;99066.75;;;29.90;23.06
11212;BME280;5663;50.864;12.096;2023-05-09T13:46:22;99067.75;;;30.09;22.09
11212;BME280;5663;50.864;12.096;2023-05-09T13:48:51;99067.34;;;30.05;23.31
11212;BME280;5663;50.864;12.096;2023-05-09T13:51:19;98996.72;;;29.60;23.60
11212;BME280;5663;50.864;12.096;2023-05-09T13:53:55;99055.97;;;30.10;23.09
11212;BME280;5663;50.864;12.096;2023-05-09T13:56:28;99066.28;;;30.13;21.38
11212;BME280;5663;50.864;12.096;2023-05-09T13:59:12;99054.72;;;30.19;20.34
11212;BME280;5663;50.864;12.096;2023-05-09T14:01:44;99040.09;;;30.02;21.05
11212;BME280;5663;50.864;12.096;2023-05-09T14:04:12;99046.69;;;30.06;20.92
11212;BME280;5663;50.864;12.096;2023-05-09T14:06:40;99049.38;;;29.99;21.70
11212;BME280;5663;50.864;12.096;2023-05-09T14:09:13;99034.22;;;29.73;20.44
11212;BME280;5663;50.864;12.096;2023-05-09T14:11:45;99054.41;;;29.82;20.38
11212;BME280;5663;50.864;12.096;2023-05-09T14:14:13;99053.59;;;29.82;22.08
11212;BME280;5663;50.864;12.096;2023-05-09T14:16:43;99045.94;;;29.79;20.80
11212;BME280;5663;50.864;12.096;2023-05-09T14:19:12;99052.34;;;29.78;21.11
11212;BME280;5663;50.864;12.096;2023-05-09T14:21:47;99047.41;;;29.81;20.43
11212;BME280;5663;50.864;12.096;2023-05-09T14:24:14;99049.44;;;29.79;21.70
11212;BME280;5663;50.864;12.096;2023-05-09T14:26:44;99048.41;;;29.87;22.22
11212;BME280;5663;50.864;12.096;2023-05-09T14:29:17;99035.41;;;29.90;20.20
11212;BME280;5663;50.864;12.096;2023-05-09T14:31:52;99036.44;;;29.89;19.80
11212;BME280;5663;50.864;12.096;2023-05-09T15:34:12;98979.44;;;28.96;20.63
11212;BME280;5663;50.864;12.096;2023-05-09T15:36:42;98978.22;;;28.85;21.69
11212;BME280;5663;50.864;12.096;2023-05-09T15:39:11;98980.44;;;28.68;21.62
11212;BME280;5663;50.864;12.096;2023-05-09T15:41:42;98978.59;;;28.56;21.58
11212;BME280;5663;50.864;12.096;2023-05-09T15:44:12;98974.03;;;28.43;20.81
11212;BME280;5663;50.864;12.096;2023-05-09T15:46:44;98968.25;;;28.33;22.00
11212;BME280;5663;50.864;12.096;2023-05-09T15:49:15;98938.53;;;28.01;21.27
11212;BME280;5663;50.864;12.096;2023-05-09T15:51:46;98965.28;;;28.08;21.35
11212;BME280;5663;50.864;12.096;2023-05-09T15:54:19;98967.31;;;27.99;21.89
11212;BME280;5663;50.864;12.096;2023-05-09T15:56:48;98964.78;;;27.84;21.70
11212;BME280;5663;50.864;12.096;2023-05-09T15:59:17;98934.25;;;27.65;21.92
11212;BME280;5663;50.864;12.096;2023-05-09T16:01:50;98946.63;;;27.73;23.63
11212;BME280;5663;50.864;12.096;2023-05-09T16:04:28;98943.09;;;27.72;24.08
11212;BME280;5663;50.864;12.096;2023-05-09T16:07:15;98945.38;;;27.69;23.00
11212;BME280;5663;50.864;12.096;2023-05-09T16:09:48;98935.91;;;27.66;22.43
11212;BME280;5663;50.864;12.096;2023-05-09T16:12:18;98930.91;;;27.57;22.30
11212;BME280;5663;50.864;12.096;2023-05-09T16:14:50;98926.97;;;27.52;23.80
11212;BME280;5663;50.864;12.096;2023-05-09T16:17:19;98921.81;;;27.44;25.39
11212;BME280;5663;50.864;12.096;2023-05-09T16:19:56;98925.06;;;27.33;24.52
11212;BME280;5663;50.864;12.096;2023-05-09T16:22:28;98925.84;;;27.27;24.57
11212;BME280;5663;50.864;12.096;2023-05-09T16:24:58;98921.47;;;27.19;25.96
11212;BME280;5663;50.864;12.096;2023-05-09T16:27:27;98918.75;;;27.13;23.60
11212;BME280;5663;50.864;12.096;2023-05-09T16:29:56;98915.81;;;27.08;23.99
11212;BME280;5663;50.864;12.096;2023-05-09T16:32:23;98906.31;;;26.98;23.59
11212;BME280;5663;50.864;12.096;2023-05-09T16:34:52;98909.16;;;26.90;24.35
11212;BME280;5663;50.864;12.096;2023-05-09T16:37:22;98903.31;;;26.80;24.00
11212;BME280;5663;50.864;12.096;2023-05-09T16:39:50;98886.66;;;26.50;24.34
11212;BME280;5663;50.864;12.096;2023-05-09T16:42:19;98896.13;;;26.52;23.50
11212;BME280;5663;50.864;12.096;2023-05-09T16:44:53;98902.94;;;26.40;25.11
11212;BME280;5663;50.864;12.096;2023-05-09T16:47:21;98896.34;;;26.36;25.80
11212;BME280;5663;50.864;12.096;2023-05-09T16:49:49;98895.47;;;26.29;25.54
11212;BME280;5663;50.864;12.096;2023-05-09T16:52:25;98881.41;;;26.14;24.63
11212;BME280;5663;50.864;12.096;2023-05-09T16:54:54;98887.91;;;26.11;24.74
11212;BME280;5663;50.864;12.096;2023-05-09T16:57:26;98881.22;;;26.00;25.08
11212;BME280;5663;50.864;12.096;2023-05-09T16:59:57;98886.88;;;25.91;25.90
11212;BME280;5663;50.864;12.096;2023-05-09T17:02:28;98882.69;;;25.82;26.28
11212;BME280;5663;50.864;12.096;2023-05-09T17:04:58;98873.31;;;25.71;26.92
11212;BME280;5663;50.864;12.096;2023-05-09T17:07:30;98867.84;;;25.58;27.04
11212;BME280;5663;50.864;12.096;2023-05-09T17:09:58;98860.03;;;25.41;27.04
11212;BME280;5663;50.864;12.096;2023-05-09T17:12:28;98878.97;;;25.46;27.87
11212;BME280;5663;50.864;12.096;2023-05-09T17:15:00;98875.19;;;25.41;28.13
11212;BME280;5663;50.864;12.096;2023-05-09T17:17:29;98876.59;;;25.22;27.25
11212;BME280;5663;50.864;12.096;2023-05-09T17:20:06;98871.25;;;25.07;27.51
11212;BME280;5663;50.864;12.096;2023-05-09T17:22:54;98865.44;;;24.89;26.99
11212;BME280;5663;50.864;12.096;2023-05-09T17:25:23;98869.00;;;24.81;28.89
11212;BME280;5663;50.864;12.096;2023-05-09T17:28:00;98871.75;;;24.73;28.58
11212;BME280;5663;50.864;12.096;2023-05-09T17:30:29;98867.88;;;24.61;28.80
11212;BME280;5663;50.864;12.096;2023-05-09T19:44:22;98850.78;;;17.69;42.88
11212;BME280;5663;50.864;12.096;2023-05-09T20:33:30;98814.47;;;16.21;47.34
11212;BME280;5663;50.864;12.096;2023-05-09T20:35:58;98818.56;;;16.14;47.65
11212;BME280;5663;50.864;12.096;2023-05-09T20:38:27;98811.84;;;16.00;47.58
11212;BME280;5663;50.864;12.096;2023-05-09T20:40:54;98814.84;;;15.96;47.62
11212;BME280;5663;50.864;12.096;2023-05-09T20:43:22;98806.75;;;15.88;47.87
11212;BME280;5663;50.864;12.096;2023-05-09T20:45:51;98810.94;;;15.79;47.86
11212;BME280;5663;50.864;12.096;2023-05-09T20:48:21;98808.13;;;15.71;47.94
11212;BME280;5663;50.864;12.096;2023-05-09T20:50:52;98803.72;;;15.60;48.24
11212;BME280;5663;50.864;12.096;2023-05-09T20:53:19;98813.28;;;15.50;48.58
11212;BME280;5663;50.864;12.096;2023-05-09T20:55:52;98810.44;;;15.42;49.00
11212;BME280;5663;50.864;12.096;2023-05-09T20:58:22;98812.00;;;15.33;49.19
11212;BME280;5663;50.864;12.096;2023-05-09T21:00:50;98815.22;;;15.25;49.41
11212;BME280;5663;50.864;12.096;2023-05-09T21:03:18;98797.66;;;15.05;49.49
11212;BME280;5663;50.864;12.096;2023-05-09T21:05:46;98824.16;;;15.12;49.43
11212;BME280;5663;50.864;12.096;2023-05-09T21:08:15;98796.09;;;14.91;49.69
11212;BME280;5663;50.864;12.096;2023-05-09T21:10:44;98806.81;;;14.88;50.14
11212;BME280;5663;50.864;12.096;2023-05-09T21:13:12;98815.72;;;14.86;50.27
11212;BME280;5663;50.864;12.096;2023-05-09T21:15:40;98821.56;;;14.78;50.36
11212;BME280;5663;50.864;12.096;2023-05-09T21:18:08;98810.97;;;14.68;50.73
11212;BME280;5663;50.864;12.096;2023-05-09T21:20:37;98813.34;;;14.60;50.98
11212;BME280;5663;50.864;12.096;2023-05-09T21:23:06;98814.03;;;14.51;51.44
11212;BME280;5663;50.864;12.096;2023-05-09T21:25:35;98805.91;;;14.43;51.74
11212;BME280;5663;50.864;12.096;2023-05-09T21:28:05;98798.75;;;14.34;51.82
11212;BME280;5663;50.864;12.096;2023-05-09T21:30:34;98801.13;;;14.25;52.04
11212;BME280;5663;50.864;12.096;2023-05-09T21:33:02;98800.88;;;14.17;52.08
